Time;durP1;ratioP1;P1;durP2;ratioP2;P2;SDS_P1;SDS_P2;PMS_P1;PMS_P2;Temp;Humidity;BMP_temperature;BMP_pressure;BME280_temperature;BME280_humidity;BME280_pressure;Samples;Min_cycle;Max_cycle;Signal;HPM_P1;HPM_P2
2023/07/04 00:01:09;;;;;;;4.25;1.38;;;18.30;83.00;;;;;;10446766;28;20428;-66
2023/07/04 00:06:13;;;;;;;4.90;1.45;;;18.30;83.30;;;;;;10442346;28;20506;-67
2023/07/04 00:11:14;;;;;;;3.42;1.20;;;18.30;83.30;;;;;;10448844;28;20485;-67
2023/07/04 00:16:15;;;;;;;2.33;1.10;;;18.20;83.30;;;;;;10439987;28;20021;-66
2023/07/04 00:21:17;;;;;;;4.03;1.10;;;18.20;83.40;;;;;;10447261;28;20045;-67
2023/07/04 00:26:19;;;;;;;4.88;1.30;;;18.20;83.50;;;;;;10445012;28;20111;-66
2023/07/04 00:31:23;;;;;;;3.88;1.27;;;18.20;83.50;;;;;;10436459;28;20056;-66
2023/07/04 00:36:23;;;;;;;2.60;1.27;;;18.20;83.50;;;;;;10450452;28;20019;-66
2023/07/04 00:41:28;;;;;;;4.53;1.92;;;18.20;83.60;;;;;;10444102;28;20020;-65
2023/07/04 00:46:39;;;;;;;4.35;1.33;;;18.20;83.70;;;;;;10441182;28;20071;-66
2023/07/04 00:51:40;;;;;;;3.47;1.05;;;18.20;83.80;;;;;;10447106;28;20066;-66
2023/07/04 00:56:41;;;;;;;5.45;1.23;;;18.10;83.70;;;;;;10445443;28;20024;-68
2023/07/04 01:01:42;;;;;;;4.18;1.30;;;18.20;83.90;;;;;;10443620;28;20510;-68
2023/07/04 01:06:49;;;;;;;5.07;1.65;;;18.10;83.80;;;;;;10443379;28;20094;-67
2023/07/04 01:11:52;;;;;;;4.35;1.35;;;18.10;84.00;;;;;;10462588;28;20025;-67
2023/07/04 01:16:54;;;;;;;3.90;1.25;;;18.10;84.60;;;;;;10453804;28;20574;-66
2023/07/04 01:22:08;;;;;;;2.92;1.60;;;18.10;84.10;;;;;;10437284;28;20306;-66
2023/07/04 01:27:09;;;;;;;3.58;1.15;;;18.10;84.20;;;;;;10436382;28;20057;-67
2023/07/04 01:32:10;;;;;;;4.20;1.45;;;18.00;84.10;;;;;;10445369;28;20102;-65
2023/07/04 01:37:12;;;;;;;4.95;1.13;;;18.00;84.10;;;;;;10456661;28;20041;-67
2023/07/04 01:42:13;;;;;;;5.35;1.45;;;18.00;84.20;;;;;;10447349;28;20026;-67
2023/07/04 01:47:14;;;;;;;2.83;1.20;;;18.00;84.80;;;;;;10450649;28;20049;-66
2023/07/04 01:52:15;;;;;;;1.73;1.00;;;18.00;84.40;;;;;;10443352;28;20036;-66
2023/07/04 01:57:15;;;;;;;2.85;1.00;;;17.90;84.30;;;;;;10444764;28;20373;-67
2023/07/04 02:02:16;;;;;;;2.83;1.17;;;17.90;84.30;;;;;;10449847;28;20292;-66
2023/07/04 02:07:17;;;;;;;2.83;1.50;;;17.90;84.40;;;;;;10451790;28;20125;-67
2023/07/04 02:12:18;;;;;;;4.57;1.20;;;17.90;84.40;;;;;;10447803;28;20484;-66
2023/07/04 02:17:18;;;;;;;5.25;1.38;;;17.90;84.50;;;;;;10450019;28;20114;-66
2023/07/04 02:22:19;;;;;;;5.30;1.20;;;17.90;84.60;;;;;;10449766;28;20052;-67
2023/07/04 02:27:20;;;;;;;2.08;1.10;;;17.90;84.60;;;;;;10460803;28;20036;-67
2023/07/04 02:32:20;;;;;;;4.03;1.30;;;17.80;84.60;;;;;;10447028;28;20029;-67
2023/07/04 02:37:21;;;;;;;3.47;1.20;;;17.80;84.60;;;;;;10446946;28;20012;-68
2023/07/04 02:42:22;;;;;;;4.82;1.20;;;17.80;84.70;;;;;;10449605;28;20025;-66
2023/07/04 02:47:26;;;;;;;3.05;2.00;;;17.80;84.70;;;;;;10450009;28;20040;-67
2023/07/04 02:52:27;;;;;;;7.13;2.85;;;17.80;84.70;;;;;;10447783;28;20652;-66
2023/07/04 02:57:27;;;;;;;5.13;1.60;;;17.80;84.70;;;;;;10446442;28;20079;-66
2023/07/04 03:02:28;;;;;;;4.43;1.20;;;17.80;84.70;;;;;;10446855;28;20085;-67
2023/07/04 03:07:29;;;;;;;4.30;1.30;;;17.80;84.70;;;;;;10445557;28;20020;-65
2023/07/04 03:12:29;;;;;;;4.45;1.20;;;17.70;84.80;;;;;;10442925;28;20024;-67
2023/07/04 03:17:30;;;;;;;3.10;1.40;;;17.80;84.80;;;;;;10445966;28;20023;-68
2023/07/04 03:22:31;;;;;;;2.78;1.20;;;17.70;84.80;;;;;;10452154;28;20036;-65
2023/07/04 03:27:32;;;;;;;4.03;1.35;;;17.70;84.90;;;;;;10442741;28;20024;-67
2023/07/04 03:32:33;;;;;;;2.70;1.30;;;17.70;84.90;;;;;;10443943;28;20366;-66
2023/07/04 03:37:35;;;;;;;2.67;1.30;;;17.70;84.90;;;;;;10457816;28;20024;-66
2023/07/04 03:42:38;;;;;;;2.67;1.30;;;17.70;85.00;;;;;;10451413;28;20071;-67
2023/07/04 03:47:39;;;;;;;2.60;1.20;;;17.70;85.00;;;;;;10440134;28;20028;-66
2023/07/04 03:52:40;;;;;;;4.35;1.10;;;17.70;85.00;;;;;;10454950;28;20024;-65
2023/07/04 03:57:41;;;;;;;4.45;1.55;;;17.70;85.10;;;;;;10433024;28;20032;-66
2023/07/04 04:02:42;;;;;;;2.40;1.13;;;17.70;85.10;;;;;;10452466;28;20032;-66
2023/07/04 04:07:42;;;;;;;2.83;1.10;;;17.70;85.10;;;;;;10445903;28;20029;-66
2023/07/04 04:12:43;;;;;;;2.20;1.15;;;17.70;85.20;;;;;;10433298;28;20115;-65
2023/07/04 04:17:43;;;;;;;2.63;1.20;;;17.70;85.20;;;;;;10446108;28;20017;-67
2023/07/04 04:22:45;;;;;;;4.40;1.75;;;17.60;85.10;;;;;;10451603;28;20024;-67
2023/07/04 04:27:46;;;;;;;3.65;1.40;;;17.70;85.20;;;;;;10451243;28;20512;-66
2023/07/04 04:32:47;;;;;;;3.30;1.30;;;17.70;85.20;;;;;;10447201;28;20033;-66
2023/07/04 04:37:48;;;;;;;3.95;1.00;;;17.70;85.20;;;;;;10449669;28;20017;-66
2023/07/04 04:42:53;;;;;;;2.70;1.15;;;17.70;85.10;;;;;;10440815;28;20025;-66
2023/07/04 04:47:54;;;;;;;3.40;1.10;;;17.60;85.10;;;;;;10442759;28;20074;-66
2023/07/04 04:52:54;;;;;;;4.28;1.38;;;17.60;85.10;;;;;;10446270;28;20454;-66
2023/07/04 04:57:55;;;;;;;3.22;1.00;;;17.60;85.10;;;;;;10438383;28;20026;-66
2023/07/04 05:02:57;;;;;;;1.55;0.90;;;17.60;85.10;;;;;;10446966;28;20401;-66
2023/07/04 05:07:57;;;;;;;1.90;0.80;;;17.70;85.10;;;;;;10460213;28;20033;-66
2023/07/04 05:12:58;;;;;;;3.25;0.90;;;17.60;85.10;;;;;;10436394;28;20151;-64
2023/07/04 05:17:59;;;;;;;4.47;1.10;;;17.50;85.00;;;;;;10454975;28;20029;-66
2023/07/04 05:23:02;;;;;;;3.10;1.00;;;17.60;85.10;;;;;;10455197;28;20119;-67
2023/07/04 05:28:03;;;;;;;2.10;1.05;;;17.60;85.00;;;;;;10441963;28;20037;-66
2023/07/04 05:33:03;;;;;;;2.30;1.08;;;17.60;85.00;;;;;;10459490;28;20074;-66
2023/07/04 05:38:04;;;;;;;1.70;0.93;;;17.60;85.00;;;;;;10463539;28;20030;-66
2023/07/04 05:43:04;;;;;;;2.80;1.02;;;17.60;85.00;;;;;;10458049;28;20026;-67
2023/07/04 05:48:05;;;;;;;2.13;0.80;;;17.60;84.90;;;;;;10456816;28;20032;-65
2023/07/04 05:53:06;;;;;;;1.90;1.00;;;17.60;84.80;;;;;;10451711;28;20218;-66
2023/07/04 05:58:06;;;;;;;1.40;0.80;;;17.60;84.80;;;;;;10455292;28;20029;-66
2023/07/04 06:03:07;;;;;;;3.15;1.30;;;17.60;84.80;;;;;;10439867;28;20044;-65
2023/07/04 06:08:08;;;;;;;1.70;0.77;;;17.60;84.70;;;;;;10449657;28;20527;-66
2023/07/04 06:13:08;;;;;;;2.30;1.00;;;17.60;84.60;;;;;;10440634;28;20089;-66
2023/07/04 06:18:09;;;;;;;3.38;0.95;;;17.70;84.60;;;;;;10437448;28;20370;-67
2023/07/04 06:23:10;;;;;;;2.50;0.80;;;17.70;84.60;;;;;;10436631;28;20021;-67
2023/07/04 06:28:10;;;;;;;2.90;0.85;;;17.70;84.50;;;;;;10435084;28;20037;-66
2023/07/04 06:33:11;;;;;;;1.65;0.70;;;17.70;84.50;;;;;;10441162;28;20055;-66
2023/07/04 06:38:11;;;;;;;2.05;0.85;;;17.70;84.40;;;;;;10440371;28;20017;-67
2023/07/04 06:43:12;;;;;;;1.92;0.60;;;17.70;84.30;;;;;;10440923;28;20234;-66
2023/07/04 06:48:13;;;;;;;2.55;0.80;;;17.80;84.30;;;;;;10440076;28;20035;-65
2023/07/04 06:53:13;;;;;;;1.77;0.75;;;17.80;84.30;;;;;;10432874;28;20021;-65
2023/07/04 06:58:15;;;;;;;1.02;0.77;;;17.80;84.20;;;;;;10440742;28;20516;-66
2023/07/04 07:03:16;;;;;;;2.67;0.88;;;17.80;84.10;;;;;;10435574;28;20036;-65
2023/07/04 07:08:16;;;;;;;2.13;0.82;;;17.80;84.70;;;;;;10445017;28;20036;-66
2023/07/04 07:13:17;;;;;;;2.03;0.65;;;17.90;84.10;;;;;;10436477;28;20029;-67
2023/07/04 07:18:17;;;;;;;1.88;0.80;;;17.90;84.00;;;;;;10445887;28;20052;-65
2023/07/04 07:23:18;;;;;;;1.65;0.80;;;17.90;84.00;;;;;;10445100;28;20037;-66
2023/07/04 07:28:18;;;;;;;3.25;0.82;;;18.00;83.90;;;;;;10439985;28;20536;-64
2023/07/04 07:33:19;;;;;;;0.95;0.70;;;18.00;83.70;;;;;;10437647;28;20116;-66
2023/07/04 07:38:20;;;;;;;2.38;0.75;;;18.00;83.70;;;;;;10434697;28;20025;-67
2023/07/04 07:43:20;;;;;;;2.58;0.70;;;18.10;83.60;;;;;;10432327;28;20497;-67
2023/07/04 07:48:21;;;;;;;1.58;0.93;;;18.10;83.50;;;;;;10434153;28;20016;-66
2023/07/04 07:53:22;;;;;;;3.03;0.90;;;18.10;83.50;;;;;;10445160;28;20210;-66
2023/07/04 07:58:22;;;;;;;3.08;0.98;;;18.20;83.50;;;;;;10434136;28;20055;-65
2023/07/04 08:03:23;;;;;;;3.33;1.33;;;18.20;83.50;;;;;;10442129;28;20056;-66
2023/07/04 08:08:23;;;;;;;3.13;0.82;;;18.20;83.40;;;;;;10439319;28;20059;-67
2023/07/04 08:13:24;;;;;;;3.30;1.08;;;18.20;83.40;;;;;;10437543;28;20029;-67
2023/07/04 08:18:25;;;;;;;1.48;0.70;;;18.20;83.30;;;;;;10438795;28;20022;-66
2023/07/04 08:23:29;;;;;;;1.08;0.70;;;18.30;83.20;;;;;;10435872;28;20025;-66
2023/07/04 08:28:29;;;;;;;4.43;1.00;;;18.30;83.10;;;;;;10438905;28;20028;-66
2023/07/04 08:33:30;;;;;;;1.90;0.90;;;18.30;83.00;;;;;;10439769;28;20021;-65
2023/07/04 08:38:31;;;;;;;3.22;0.77;;;18.30;83.00;;;;;;10440840;28;20017;-66
2023/07/04 08:44:05;;;;;;;5.32;1.20;;;18.40;83.10;;;;;;10433638;28;20017;-66
2023/07/04 08:49:12;;;;;;;4.75;1.00;;;18.30;83.10;;;;;;10443439;28;20401;-67
2023/07/04 08:54:15;;;;;;;2.30;0.83;;;18.30;83.10;;;;;;10434930;28;20030;-66
2023/07/04 08:59:28;;;;;;;3.83;1.45;;;18.30;83.10;;;;;;10434110;28;20291;-66
2023/07/04 09:04:46;;;;;;;2.45;1.00;;;18.30;83.00;;;;;;10442570;28;20032;-65
2023/07/04 09:09:59;;;;;;;2.17;0.80;;;18.40;83.00;;;;;;10440778;28;20523;-67
2023/07/04 09:15:16;;;;;;;2.25;0.93;;;18.40;82.90;;;;;;10443236;28;20024;-67
2023/07/04 09:20:17;;;;;;;1.85;0.90;;;18.40;82.90;;;;;;10441919;28;20400;-65
2023/07/04 09:25:18;;;;;;;3.03;1.00;;;18.50;82.90;;;;;;10432566;28;20135;-66
2023/07/04 09:30:19;;;;;;;3.03;1.00;;;18.50;82.80;;;;;;10432995;28;20043;-67
2023/07/04 09:35:20;;;;;;;2.67;1.10;;;18.60;82.80;;;;;;10451391;28;20036;-67
2023/07/04 09:40:46;;;;;;;3.55;0.80;;;18.60;82.70;;;;;;10446059;28;20032;-67
2023/07/04 09:45:47;;;;;;;6.90;1.63;;;18.70;82.80;;;;;;10434458;28;20021;-66
2023/07/04 09:50:47;;;;;;;3.47;1.00;;;18.70;82.60;;;;;;10442869;28;20023;-66
2023/07/04 09:55:59;;;;;;;1.58;0.90;;;18.80;82.60;;;;;;10446090;28;20425;-66
2023/07/04 10:01:08;;;;;;;3.35;1.23;;;18.80;82.70;;;;;;10449754;28;20043;-65
2023/07/04 10:06:11;;;;;;;3.95;0.98;;;18.80;82.80;;;;;;10447876;28;20077;-65
2023/07/04 10:11:11;;;;;;;4.10;0.98;;;18.80;82.70;;;;;;10453028;28;20559;-66
2023/07/04 10:16:22;;;;;;;1.98;1.10;;;18.80;82.70;;;;;;10440087;28;20029;-66
2023/07/04 10:21:23;;;;;;;4.07;1.17;;;18.80;82.80;;;;;;10445565;28;20033;-67
2023/07/04 10:26:23;;;;;;;3.50;1.10;;;18.80;82.90;;;;;;10444606;28;20037;-66
2023/07/04 10:31:24;;;;;;;2.72;1.10;;;18.80;83.10;;;;;;10441531;28;20514;-66
2023/07/04 10:36:34;;;;;;;3.08;1.10;;;18.80;83.10;;;;;;10441151;28;20017;-66
2023/07/04 10:41:47;;;;;;;4.00;1.67;;;18.80;83.20;;;;;;10448742;28;20032;-67
2023/07/04 10:46:55;;;;;;;3.42;1.08;;;18.80;83.20;;;;;;10438979;28;20077;-66
2023/07/04 10:52:00;;;;;;;;;;;18.90;83.10;;;;;;10453141;28;20028;-66
2023/07/04 10:57:30;;;;;;;4.82;1.10;;;18.90;83.00;;;;;;10451521;28;20372;-66
2023/07/04 11:02:37;;;;;;;3.75;1.17;;;19.00;82.60;;;;;;10436988;28;20041;-66
2023/07/04 11:07:40;;;;;;;5.75;1.20;;;19.00;82.40;;;;;;10451660;28;20468;-66
2023/07/04 11:12:42;;;;;;;4.18;1.17;;;19.20;82.20;;;;;;10437882;28;20021;-65
2023/07/04 11:17:44;;;;;;;6.05;1.25;;;19.10;81.90;;;;;;10443324;28;20030;-65
2023/07/04 11:22:57;;;;;;;2.90;1.00;;;19.10;81.90;;;;;;10449839;28;20028;-67
2023/07/04 11:28:35;;;;;;;3.58;1.20;;;19.10;81.90;;;;;;10435259;28;20428;-66
2023/07/04 11:34:00;;;;;;;4.30;1.30;;;19.10;81.60;;;;;;10439326;28;20020;-65
2023/07/04 11:39:17;;;;;;;6.10;2.42;;;19.30;81.70;;;;;;10448512;28;20017;-66
2023/07/04 11:44:31;;;;;;;6.70;1.20;;;19.40;81.40;;;;;;10446056;28;20136;-65
2023/07/04 11:49:33;;;;;;;3.08;1.17;;;19.50;81.20;;;;;;10438725;28;20020;-66
2023/07/04 11:54:34;;;;;;;7.32;1.40;;;19.50;81.20;;;;;;10440752;28;20029;-67
2023/07/04 11:59:43;;;;;;;4.35;1.67;;;19.50;81.20;;;;;;10442156;28;20503;-66
2023/07/04 12:04:47;;;;;;;3.38;1.20;;;19.50;81.10;;;;;;10439417;28;20394;-67
2023/07/04 12:10:15;;;;;;;2.25;0.93;;;19.50;81.20;;;;;;10442863;28;20021;-65
2023/07/04 12:15:24;;;;;;;;;;;19.50;80.90;;;;;;10437431;28;20029;-66
2023/07/04 12:20:30;;;;;;;4.47;1.40;;;19.50;80.80;;;;;;10447355;28;19905;-66
2023/07/04 12:25:39;;;;;;;2.67;1.23;;;19.50;81.20;;;;;;10435953;28;20453;-66
2023/07/04 12:30:51;;;;;;;4.50;1.50;;;19.50;81.10;;;;;;10444756;28;20048;-65
2023/07/04 12:35:59;;;;;;;2.45;1.00;;;19.50;81.10;;;;;;10438850;28;20009;-66
2023/07/04 12:41:00;;;;;;;3.55;1.20;;;19.50;81.30;;;;;;10445538;28;20072;-66
2023/07/04 12:46:11;;;;;;;3.00;1.02;;;19.50;81.30;;;;;;10440823;28;20104;-65
2023/07/04 12:51:17;;;;;;;3.13;1.33;;;19.60;81.00;;;;;;10437977;28;20021;-66
2023/07/04 12:56:18;;;;;;;5.38;0.90;;;19.60;81.00;;;;;;10450920;28;20428;-66
2023/07/04 13:01:32;;;;;;;3.85;1.23;;;19.60;81.10;;;;;;10428541;28;20159;-67
2023/07/04 13:06:34;;;;;;;3.88;1.20;;;19.60;81.10;;;;;;10441332;28;20029;-66
2023/07/04 13:11:34;;;;;;;2.95;1.30;;;19.60;81.20;;;;;;10439502;28;20291;-67
2023/07/04 13:16:36;;;;;;;3.25;1.23;;;19.60;81.00;;;;;;10446730;28;20527;-66
2023/07/04 13:21:44;;;;;;;4.35;1.25;;;19.60;81.20;;;;;;10437982;28;20701;-64
2023/07/04 13:26:44;;;;;;;3.70;1.10;;;19.70;81.10;;;;;;10445072;28;20024;-67
2023/07/04 13:31:46;;;;;;;6.22;1.13;;;19.70;81.00;;;;;;10444333;28;20520;-67
2023/07/04 13:36:52;;;;;;;4.75;1.23;;;19.70;80.90;;;;;;10447913;28;20032;-67
2023/07/04 13:41:54;;;;;;;6.43;1.20;;;19.70;80.90;;;;;;10444530;28;20036;-67
2023/07/04 13:46:55;;;;;;;2.65;0.98;;;19.70;80.90;;;;;;10454066;28;20390;-67
2023/07/04 13:51:56;;;;;;;3.85;1.25;;;19.80;80.90;;;;;;10449465;28;20035;-66
2023/07/04 13:56:57;;;;;;;4.40;1.42;;;19.90;80.80;;;;;;10456177;28;20028;-66
2023/07/04 14:01:58;;;;;;;2.13;1.10;;;19.90;80.60;;;;;;10467901;28;20048;-67
2023/07/04 14:06:58;;;;;;;4.40;1.38;;;20.00;80.60;;;;;;10439794;28;20476;-67
2023/07/04 14:12:00;;;;;;;3.13;1.50;;;20.10;80.70;;;;;;10453566;28;20021;-67
2023/07/04 14:17:00;;;;;;;5.15;1.20;;;20.10;80.50;;;;;;10438132;28;20013;-67
2023/07/04 14:22:01;;;;;;;4.03;1.25;;;20.10;80.50;;;;;;10445054;28;20034;-67
2023/07/04 14:27:01;;;;;;;4.32;1.20;;;20.20;80.40;;;;;;10444016;28;20040;-67
2023/07/04 14:32:02;;;;;;;5.03;1.20;;;20.30;80.20;;;;;;10448023;28;20033;-67
2023/07/04 14:37:03;;;;;;;3.88;1.10;;;20.40;80.00;;;;;;10452251;28;20051;-67
2023/07/04 14:42:04;;;;;;;2.97;1.17;;;20.50;79.70;;;;;;10447323;28;20033;-67
2023/07/04 14:47:05;;;;;;;2.90;1.35;;;20.60;79.60;;;;;;10456084;28;20086;-67
2023/07/04 14:52:07;;;;;;;2.45;1.10;;;20.60;79.60;;;;;;10436069;28;20025;-67
2023/07/04 14:57:07;;;;;;;3.50;1.30;;;20.60;79.70;;;;;;10449559;28;20025;-67
2023/07/04 15:02:08;;;;;;;3.40;1.42;;;20.60;79.60;;;;;;10438909;28;20025;-67
2023/07/04 15:07:09;;;;;;;2.35;1.13;;;20.70;79.50;;;;;;10448424;28;20023;-67
2023/07/04 15:12:10;;;;;;;2.72;1.10;;;20.80;79.30;;;;;;10436262;28;20261;-67
2023/07/04 15:17:11;;;;;;;2.38;0.90;;;20.90;79.20;;;;;;10447870;28;20507;-67
2023/07/04 15:22:11;;;;;;;3.50;1.30;;;21.00;79.00;;;;;;10448395;28;20021;-68
2023/07/04 15:27:12;;;;;;;3.15;1.00;;;21.10;78.70;;;;;;10412576;28;1067396;-68
2023/07/04 15:32:12;;;;;;;4.20;1.50;;;21.20;78.50;;;;;;10455749;28;20512;-67
2023/07/04 15:37:16;;;;;;;1.75;0.90;;;21.20;78.30;;;;;;10444226;28;20087;-67
2023/07/04 15:42:17;;;;;;;2.65;1.20;;;21.30;78.20;;;;;;10449184;28;20041;-68
2023/07/04 15:47:18;;;;;;;3.08;1.05;;;21.40;78.10;;;;;;10429667;28;20113;-67
2023/07/04 15:52:18;;;;;;;3.92;1.17;;;21.40;78.10;;;;;;10435868;28;20128;-67
2023/07/04 15:57:19;;;;;;;2.30;1.20;;;21.40;78.00;;;;;;10442694;28;20031;-68
2023/07/04 16:02:25;;;;;;;2.10;1.42;;;21.40;78.10;;;;;;10445481;28;20194;-68
2023/07/04 16:07:26;;;;;;;2.67;1.25;;;21.40;78.20;;;;;;10446209;28;20027;-68
2023/07/04 16:12:26;;;;;;;1.83;1.10;;;21.40;78.20;;;;;;10443456;28;20032;-68
2023/07/04 16:17:27;;;;;;;2.58;1.10;;;21.40;78.40;;;;;;10442133;28;20065;-67
2023/07/04 16:22:28;;;;;;;1.50;0.88;;;21.30;78.50;;;;;;10442627;28;20032;-67
2023/07/04 16:27:28;;;;;;;2.28;1.10;;;21.30;78.60;;;;;;10437411;28;20028;-67
2023/07/04 16:32:29;;;;;;;3.28;0.90;;;21.30;78.80;;;;;;10431371;28;21123;-67
2023/07/04 16:37:30;;;;;;;1.92;1.02;;;21.20;78.80;;;;;;10433619;28;20025;-67
2023/07/04 16:42:31;;;;;;;2.00;1.08;;;21.20;79.00;;;;;;10442120;28;20029;-67
2023/07/04 16:47:31;;;;;;;2.10;0.98;;;21.20;79.00;;;;;;10448032;28;20024;-67
2023/07/04 16:52:32;;;;;;;2.05;1.00;;;21.10;79.10;;;;;;10441621;28;20104;-67
2023/07/04 16:57:33;;;;;;;1.92;1.08;;;21.10;79.20;;;;;;10440665;28;20028;-67
2023/07/04 17:02:33;;;;;;;2.53;1.20;;;21.00;79.30;;;;;;10436114;28;20116;-68
2023/07/04 17:07:34;;;;;;;3.38;0.95;;;21.10;79.40;;;;;;10447859;28;20025;-67
2023/07/04 17:12:35;;;;;;;1.63;0.82;;;21.00;79.50;;;;;;10432736;28;20033;-67
2023/07/04 17:17:36;;;;;;;2.25;0.90;;;21.00;79.60;;;;;;10433501;28;20029;-67
2023/07/04 17:22:36;;;;;;;2.20;1.17;;;21.00;80.30;;;;;;10434996;28;20444;-68
2023/07/04 17:27:37;;;;;;;1.77;1.05;;;21.00;79.80;;;;;;10440081;28;20113;-67
2023/07/04 17:32:38;;;;;;;2.53;1.00;;;20.90;79.80;;;;;;10435336;28;20022;-67
2023/07/04 17:37:38;;;;;;;2.72;0.98;;;21.00;80.00;;;;;;10429132;28;20340;-67
2023/07/04 17:42:39;;;;;;;3.17;0.70;;;20.90;80.00;;;;;;10437621;28;20163;-67
2023/07/04 17:47:40;;;;;;;2.38;1.25;;;20.90;80.10;;;;;;10440339;28;20082;-67
2023/07/04 17:52:40;;;;;;;2.05;1.20;;;20.80;80.10;;;;;;10439261;28;20028;-68
2023/07/04 17:57:41;;;;;;;3.33;1.30;;;20.80;80.20;;;;;;10443747;28;20012;-68
2023/07/04 18:02:42;;;;;;;1.98;0.98;;;20.80;80.20;;;;;;10436986;28;20036;-68
2023/07/04 18:07:43;;;;;;;3.17;1.10;;;20.80;80.30;;;;;;10436227;28;20029;-67
2023/07/04 18:12:44;;;;;;;1.48;1.00;;;20.80;80.40;;;;;;10422532;28;20485;-68
2023/07/04 18:17:44;;;;;;;2.45;1.00;;;20.60;80.30;;;;;;10452719;28;20276;-68
2023/07/04 18:22:45;;;;;;;1.75;1.05;;;20.60;80.30;;;;;;10445267;28;20040;-67
2023/07/04 18:27:45;;;;;;;2.63;1.10;;;20.70;80.40;;;;;;10448742;28;20623;-68
2023/07/04 18:32:46;;;;;;;2.53;1.10;;;20.60;80.40;;;;;;10447826;28;20031;-68
2023/07/04 18:37:47;;;;;;;2.42;1.30;;;20.60;80.40;;;;;;10447308;28;20025;-67
2023/07/04 18:42:50;;;;;;;2.60;1.48;;;20.60;80.40;;;;;;10444745;28;20417;-67
2023/07/04 18:47:51;;;;;;;1.98;1.20;;;20.60;80.40;;;;;;10446956;28;20310;-67
2023/07/04 18:52:51;;;;;;;4.10;1.10;;;20.50;80.40;;;;;;10444959;28;20009;-67
2023/07/04 18:57:52;;;;;;;2.08;1.10;;;20.50;80.40;;;;;;10446479;28;20109;-67
2023/07/04 19:02:53;;;;;;;1.88;1.02;;;20.50;80.50;;;;;;10439606;28;20361;-67
2023/07/04 19:07:53;;;;;;;2.75;1.30;;;20.50;80.50;;;;;;10447386;28;20016;-68
2023/07/04 19:12:54;;;;;;;3.20;1.20;;;20.40;80.50;;;;;;10452578;28;20037;-67
2023/07/04 19:17:55;;;;;;;2.38;1.27;;;20.40;80.60;;;;;;10439268;28;20026;-67
2023/07/04 19:22:55;;;;;;;3.10;1.08;;;20.40;80.60;;;;;;10451147;28;20492;-67
2023/07/04 19:27:56;;;;;;;3.65;1.20;;;20.40;80.70;;;;;;10448189;28;20087;-68
2023/07/04 19:32:56;;;;;;;3.45;1.27;;;20.30;80.70;;;;;;10447299;28;20036;-67
2023/07/04 19:37:57;;;;;;;1.65;0.95;;;20.30;80.70;;;;;;10445918;28;20576;-68
2023/07/04 19:42:58;;;;;;;1.70;0.90;;;20.30;80.80;;;;;;10443276;28;20029;-67
2023/07/04 19:47:58;;;;;;;3.28;0.90;;;20.30;80.90;;;;;;10441910;28;20067;-67
2023/07/04 19:53:01;;;;;;;3.20;1.00;;;20.20;81.00;;;;;;10452685;28;20137;-67
2023/07/04 19:58:02;;;;;;;2.28;1.10;;;20.20;81.00;;;;;;10452187;28;20014;-67
2023/07/04 20:03:03;;;;;;;2.55;1.20;;;20.20;81.10;;;;;;10443366;28;20049;-67
2023/07/04 20:08:03;;;;;;;1.95;1.02;;;20.20;81.10;;;;;;10435706;28;20044;-65
2023/07/04 20:13:04;;;;;;;1.45;0.90;;;20.10;81.10;;;;;;10443619;28;20061;-66
2023/07/04 20:18:05;;;;;;;2.65;1.15;;;20.20;81.20;;;;;;10437423;28;20032;-65
2023/07/04 20:23:05;;;;;;;2.95;1.25;;;20.10;81.20;;;;;;10448465;28;20409;-66
2023/07/04 20:28:11;;;;;;;3.25;1.10;;;20.10;81.20;;;;;;10451271;28;20035;-66
2023/07/04 20:33:12;;;;;;;3.28;1.35;;;20.00;81.20;;;;;;10445484;28;20040;-66
2023/07/04 20:38:15;;;;;;;4.45;1.33;;;20.00;81.20;;;;;;10445615;28;20545;-64
2023/07/04 20:43:18;;;;;;;2.85;1.15;;;20.00;81.20;;;;;;10443145;28;20381;-65
2023/07/04 20:48:18;;;;;;;3.78;1.13;;;20.00;81.30;;;;;;10433790;28;20349;-66
2023/07/04 20:53:19;;;;;;;3.05;1.25;;;20.00;81.30;;;;;;10446410;28;20029;-65
2023/07/04 20:58:21;;;;;;;2.35;1.10;;;19.90;81.30;;;;;;10441746;28;20040;-66
2023/07/04 21:03:23;;;;;;;2.25;1.20;;;19.90;81.30;;;;;;10440190;28;20017;-65
2023/07/04 21:08:26;;;;;;;1.42;1.02;;;19.90;81.30;;;;;;10449495;28;20059;-66
2023/07/04 21:13:27;;;;;;;2.67;1.27;;;19.80;81.30;;;;;;10441846;28;20025;-66
2023/07/04 21:18:28;;;;;;;4.03;1.48;;;19.80;81.30;;;;;;10439371;28;20013;-64
2023/07/04 21:23:28;;;;;;;3.70;1.38;;;19.80;81.70;;;;;;10435392;28;20060;-66
2023/07/04 21:28:31;;;;;;;2.88;1.30;;;19.80;81.50;;;;;;10429697;28;20128;-65
2023/07/04 21:33:32;;;;;;;4.72;1.70;;;19.80;81.50;;;;;;10438388;28;20017;-65
2023/07/04 21:38:36;;;;;;;2.30;1.38;;;19.80;81.50;;;;;;10437255;28;20524;-66
2023/07/04 21:43:36;;;;;;;2.10;1.60;;;19.70;81.60;;;;;;10431189;28;20491;-67
2023/07/04 21:48:38;;;;;;;2.72;1.42;;;19.70;81.70;;;;;;10433719;28;20044;-66
2023/07/04 21:53:39;;;;;;;4.47;1.52;;;19.70;82.40;;;;;;10439380;28;20021;-66
2023/07/04 21:58:39;;;;;;;2.90;1.50;;;19.60;81.80;;;;;;10445939;28;20025;-66
2023/07/04 22:03:42;;;;;;;2.20;1.30;;;19.60;81.90;;;;;;10430575;28;20024;-66
2023/07/04 22:08:43;;;;;;;3.05;1.30;;;19.60;82.00;;;;;;10450959;28;20017;-67
2023/07/04 22:13:46;;;;;;;4.68;1.67;;;19.60;82.10;;;;;;10447767;28;20412;-67
2023/07/04 22:18:46;;;;;;;4.40;1.48;;;19.50;82.30;;;;;;10436206;28;20031;-67
2023/07/04 22:23:48;;;;;;;3.33;1.60;;;19.50;82.30;;;;;;10444592;28;20522;-66
2023/07/04 22:28:49;;;;;;;3.80;1.55;;;19.50;82.50;;;;;;10437277;28;20075;-66
2023/07/04 22:34:04;;;;;;;3.78;2.03;;;19.40;82.60;;;;;;10437980;28;20036;-67
2023/07/04 22:39:07;;;;;;;2.97;1.42;;;19.40;82.90;;;;;;10448765;28;20483;-66
2023/07/04 22:44:08;;;;;;;5.90;2.00;;;19.40;83.50;;;;;;10437511;28;20363;-66
2023/07/04 22:49:09;;;;;;;3.08;1.70;;;19.40;83.00;;;;;;10447449;28;20488;-66
2023/07/04 22:54:10;;;;;;;3.25;1.85;;;19.40;83.10;;;;;;10439025;28;20033;-66
2023/07/04 22:59:10;;;;;;;4.65;1.73;;;19.30;83.10;;;;;;10438959;28;20017;-66
2023/07/04 23:04:11;;;;;;;4.30;1.77;;;19.30;83.30;;;;;;10444655;28;20036;-66
2023/07/04 23:09:12;;;;;;;4.28;2.17;;;19.30;83.40;;;;;;10450351;28;20033;-66
2023/07/04 23:14:12;;;;;;;5.57;1.88;;;19.30;83.60;;;;;;10440026;28;20056;-66
2023/07/04 23:19:13;;;;;;;4.40;2.00;;;19.30;83.70;;;;;;10439723;28;20021;-65
2023/07/04 23:24:14;;;;;;;4.55;1.90;;;19.30;83.80;;;;;;10445823;28;20444;-67
2023/07/04 23:29:14;;;;;;;2.75;1.90;;;19.30;83.90;;;;;;10453197;28;20036;-66
2023/07/04 23:34:15;;;;;;;4.22;2.00;;;19.30;84.00;;;;;;10438855;28;20519;-65
2023/07/04 23:39:17;;;;;;;3.67;2.10;;;19.20;84.00;;;;;;10445835;28;20365;-65
2023/07/04 23:44:19;;;;;;;2.92;1.90;;;19.30;84.20;;;;;;10445305;28;20017;-66
2023/07/04 23:49:19;;;;;;;4.95;2.20;;;19.20;84.30;;;;;;10450786;28;20320;-65
2023/07/04 23:54:20;;;;;;;5.10;1.90;;;19.10;84.30;;;;;;10434985;28;20055;-66
2023/07/04 23:59:21;;;;;;;3.97;1.70;;;19.10;84.40;;;;;;10452524;28;20119;-65
